sensor_id;sensor_type;location;lat;lon;timestamp;pressure;altitude;pressure_sealevel;temperature;humidity
63115;BME280;49208;50.874;6.466;2023-02-11T07:00:40;102257.88;;;4.36;100.00
63115;BME280;49208;50.874;6.466;2023-02-11T07:03:05;102253.44;;;4.35;100.00
63115;BME280;49208;50.874;6.466;2023-02-11T07:05:31;102257.91;;;4.39;100.00
63115;BME280;49208;50.874;6.466;2023-02-11T07:07:58;102259.66;;;4.39;100.00
63115;BME280;49208;50.874;6.466;2023-02-11T07:10:23;102258.81;;;4.41;100.00
63115;BME280;49208;50.874;6.466;2023-02-11T07:12:49;102265.00;;;4.43;100.00
63115;BME280;49208;50.874;6.466;2023-02-11T07:15:14;102268.56;;;4.45;100.00
63115;BME280;49208;50.874;6.466;2023-02-11T07:17:39;102271.16;;;4.44;100.00
63115;BME280;49208;50.874;6.466;2023-02-11T07:20:05;102266.81;;;4.44;100.00
63115;BME280;49208;50.874;6.466;2023-02-11T07:22:30;102269.44;;;4.46;100.00
63115;BME280;49208;50.874;6.466;2023-02-11T07:24:57;102266.81;;;4.46;100.00
63115;BME280;49208;50.874;6.466;2023-02-11T07:27:23;102270.38;;;4.48;100.00
63115;BME280;49208;50.874;6.466;2023-02-11T07:29:48;102283.50;;;4.45;100.00
63115;BME280;49208;50.874;6.466;2023-02-11T07:32:13;102285.28;;;4.46;100.00
63115;BME280;49208;50.874;6.466;2023-02-11T07:34:39;102288.81;;;4.48;100.00
63115;BME280;49208;50.874;6.466;2023-02-11T07:37:04;102297.63;;;4.47;100.00
63115;BME280;49208;50.874;6.466;2023-02-11T07:39:30;102295.84;;;4.48;100.00
63115;BME280;49208;50.874;6.466;2023-02-11T07:41:55;102289.69;;;4.47;100.00
63115;BME280;49208;50.874;6.466;2023-02-11T07:44:21;102300.28;;;4.49;100.00
63115;BME280;49208;50.874;6.466;2023-02-11T07:46:46;102299.41;;;4.50;100.00
63115;BME280;49208;50.874;6.466;2023-02-11T07:49:14;102300.28;;;4.50;100.00
63115;BME280;49208;50.874;6.466;2023-02-11T07:51:40;102298.56;;;4.52;100.00
63115;BME280;49208;50.874;6.466;2023-02-11T07:54:05;102296.84;;;4.53;100.00
63115;BME280;49208;50.874;6.466;2023-02-11T07:56:31;102293.41;;;4.57;100.00
63115;BME280;49208;50.874;6.466;2023-02-11T07:59:00;102305.72;;;4.58;100.00
63115;BME280;49208;50.874;6.466;2023-02-11T08:01:26;102307.47;;;4.57;100.00
63115;BME280;49208;50.874;6.466;2023-02-11T08:03:56;102314.50;;;4.58;100.00
63115;BME280;49208;50.874;6.466;2023-02-11T08:06:24;102318.03;;;4.57;100.00
63115;BME280;49208;50.874;6.466;2023-02-11T08:08:50;102318.91;;;4.58;100.00
63115;BME280;49208;50.874;6.466;2023-02-11T08:11:22;102319.78;;;4.58;100.00
63115;BME280;49208;50.874;6.466;2023-02-11T08:13:48;102325.94;;;4.57;100.00
63115;BME280;49208;50.874;6.466;2023-02-11T08:18:46;102322.47;;;4.60;100.00
63115;BME280;49208;50.874;6.466;2023-02-11T08:21:12;102324.19;;;4.58;100.00
63115;BME280;49208;50.874;6.466;2023-02-11T08:23:39;102326.88;;;4.59;100.00
63115;BME280;49208;50.874;6.466;2023-02-11T08:26:10;102329.47;;;4.58;100.00
63115;BME280;49208;50.874;6.466;2023-02-11T08:28:38;102328.56;;;4.57;100.00
63115;BME280;49208;50.874;6.466;2023-02-11T08:31:09;102336.53;;;4.59;100.00
63115;BME280;49208;50.874;6.466;2023-02-11T08:33:35;102347.91;;;4.58;100.00
63115;BME280;49208;50.874;6.466;2023-02-11T08:36:11;102342.69;;;4.59;100.00
63115;BME280;49208;50.874;6.466;2023-02-11T08:38:37;102344.50;;;4.62;100.00
63115;BME280;49208;50.874;6.466;2023-02-11T08:41:03;102341.00;;;4.64;100.00
63115;BME280;49208;50.874;6.466;2023-02-11T08:43:29;102337.56;;;4.67;100.00
63115;BME280;49208;50.874;6.466;2023-02-11T08:45:54;102334.94;;;4.67;100.00
63115;BME280;49208;50.874;6.466;2023-02-11T08:48:20;102340.28;;;4.72;100.00
63115;BME280;49208;50.874;6.466;2023-02-11T08:50:45;102338.59;;;4.75;100.00
63115;BME280;49208;50.874;6.466;2023-02-11T08:53:10;102346.59;;;4.80;100.00
63115;BME280;49208;50.874;6.466;2023-02-11T08:55:36;102348.41;;;4.82;100.00
63115;BME280;49208;50.874;6.466;2023-02-11T08:58:01;102352.84;;;4.85;100.00
63115;BME280;49208;50.874;6.466;2023-02-11T09:00:27;102351.13;;;4.87;100.00
63115;BME280;49208;50.874;6.466;2023-02-11T09:02:52;102356.47;;;4.90;100.00
63115;BME280;49208;50.874;6.466;2023-02-11T09:05:18;102351.19;;;4.92;100.00
63115;BME280;49208;50.874;6.466;2023-02-11T09:07:43;102359.19;;;4.95;100.00
63115;BME280;49208;50.874;6.466;2023-02-11T09:10:08;102372.47;;;4.99;100.00
63115;BME280;49208;50.874;6.466;2023-02-11T09:12:34;102375.13;;;5.01;100.00
63115;BME280;49208;50.874;6.466;2023-02-11T09:14:59;102373.41;;;5.03;100.00
63115;BME280;49208;50.874;6.466;2023-02-11T09:17:25;102368.16;;;5.04;100.00
63115;BME280;49208;50.874;6.466;2023-02-11T09:19:50;102375.25;;;5.07;100.00
63115;BME280;49208;50.874;6.466;2023-02-11T09:22:16;102383.25;;;5.12;100.00
63115;BME280;49208;50.874;6.466;2023-02-11T09:24:41;102384.13;;;5.12;100.00
63115;BME280;49208;50.874;6.466;2023-02-11T09:27:06;102378.03;;;5.15;100.00
63115;BME280;49208;50.874;6.466;2023-02-11T09:29:32;102377.19;;;5.17;100.00
63115;BME280;49208;50.874;6.466;2023-02-11T09:31:57;102389.53;;;5.20;100.00
63115;BME280;49208;50.874;6.466;2023-02-11T09:34:23;102383.44;;;5.22;100.00
63115;BME280;49208;50.874;6.466;2023-02-11T09:36:48;102390.53;;;5.25;100.00
63115;BME280;49208;50.874;6.466;2023-02-11T09:39:16;102392.31;;;5.26;100.00
63115;BME280;49208;50.874;6.466;2023-02-11T09:44:32;102387.97;;;5.30;100.00
63115;BME280;49208;50.874;6.466;2023-02-11T09:47:04;102395.03;;;5.32;100.00
63115;BME280;49208;50.874;6.466;2023-02-11T09:49:42;102381.00;;;5.35;100.00
63115;BME280;49208;50.874;6.466;2023-02-11T09:52:46;102391.63;;;5.38;100.00
63115;BME280;49208;50.874;6.466;2023-02-11T09:55:20;102390.75;;;5.39;100.00
63115;BME280;49208;50.874;6.466;2023-02-11T09:57:47;102400.47;;;5.40;100.00
63115;BME280;49208;50.874;6.466;2023-02-11T10:02:56;102397.00;;;5.42;100.00
63115;BME280;49208;50.874;6.466;2023-02-11T10:08:19;102412.84;;;5.42;100.00
63115;BME280;49208;50.874;6.466;2023-02-11T10:11:11;102414.59;;;5.42;100.00
63115;BME280;49208;50.874;6.466;2023-02-11T10:13:54;102412.78;;;5.41;100.00
63115;BME280;49208;50.874;6.466;2023-02-11T10:16:49;102411.91;;;5.40;100.00
63115;BME280;49208;50.874;6.466;2023-02-11T10:22:13;102415.44;;;5.41;100.00
63115;BME280;49208;50.874;6.466;2023-02-11T10:24:49;102419.84;;;5.40;100.00
63115;BME280;49208;50.874;6.466;2023-02-11T10:27:19;102423.41;;;5.42;100.00
63115;BME280;49208;50.874;6.466;2023-02-11T10:29:50;102419.00;;;5.43;100.00
63115;BME280;49208;50.874;6.466;2023-02-11T10:32:39;102424.28;;;5.43;100.00
63115;BME280;49208;50.874;6.466;2023-02-11T10:35:18;102430.47;;;5.45;100.00
63115;BME280;49208;50.874;6.466;2023-02-11T10:37:45;102423.47;;;5.47;100.00
63115;BME280;49208;50.874;6.466;2023-02-11T10:40:20;102426.16;;;5.49;100.00
63115;BME280;49208;50.874;6.466;2023-02-11T10:42:54;102428.81;;;5.50;100.00
63115;BME280;49208;50.874;6.466;2023-02-11T10:45:25;102425.25;;;5.50;100.00
63115;BME280;49208;50.874;6.466;2023-02-11T10:47:52;102434.09;;;5.50;100.00
63115;BME280;49208;50.874;6.466;2023-02-11T10:50:26;102434.06;;;5.49;100.00
63115;BME280;49208;50.874;6.466;2023-02-11T10:53:10;102439.34;;;5.49;100.00
63115;BME280;49208;50.874;6.466;2023-02-11T10:55:36;102436.69;;;5.47;100.00
63115;BME280;49208;50.874;6.466;2023-02-11T10:58:02;102434.91;;;5.47;100.00
63115;BME280;49208;50.874;6.466;2023-02-11T11:00:38;102439.31;;;5.47;100.00
63115;BME280;49208;50.874;6.466;2023-02-11T11:03:16;102428.72;;;5.45;100.00
63115;BME280;49208;50.874;6.466;2023-02-11T11:08:16;102429.59;;;5.44;100.00
63115;BME280;49208;50.874;6.466;2023-02-11T11:10:44;102444.59;;;5.47;100.00
63115;BME280;49208;50.874;6.466;2023-02-11T11:13:27;102442.00;;;5.49;100.00
63115;BME280;49208;50.874;6.466;2023-02-11T11:18:38;102430.53;;;5.48;100.00
63115;BME280;49208;50.874;6.466;2023-02-11T11:23:57;102433.19;;;5.50;100.00
63115;BME280;49208;50.874;6.466;2023-02-11T11:26:27;102424.41;;;5.51;100.00
63115;BME280;49208;50.874;6.466;2023-02-11T11:29:01;102428.00;;;5.54;100.00
63115;BME280;49208;50.874;6.466;2023-02-11T11:31:56;102428.94;;;5.58;100.00
63115;BME280;49208;50.874;6.466;2023-02-11T11:34:28;102428.13;;;5.60;100.00
63115;BME280;49208;50.874;6.466;2023-02-11T11:36:57;102432.56;;;5.63;100.00
63115;BME280;49208;50.874;6.466;2023-02-11T11:39:29;102428.19;;;5.65;100.00
63115;BME280;49208;50.874;6.466;2023-02-11T11:41:56;102425.59;;;5.68;100.00
63115;BME280;49208;50.874;6.466;2023-02-11T11:44:25;102423.91;;;5.73;100.00
63115;BME280;49208;50.874;6.466;2023-02-11T11:47:18;102423.06;;;5.76;100.00
63115;BME280;49208;50.874;6.466;2023-02-11T11:55:18;102403.72;;;5.78;100.00
63115;BME280;49208;50.874;6.466;2023-02-11T11:57:46;102405.56;;;5.82;100.00
63115;BME280;49208;50.874;6.466;2023-02-11T12:00:15;102402.06;;;5.83;100.00
63115;BME280;49208;50.874;6.466;2023-02-11T12:12:12;102396.88;;;5.90;100.00
63115;BME280;49208;50.874;6.466;2023-02-11T12:14:52;102405.69;;;5.90;100.00
63115;BME280;49208;50.874;6.466;2023-02-11T12:17:56;102405.72;;;5.92;100.00
63115;BME280;49208;50.874;6.466;2023-02-11T12:36:21;102414.78;;;6.07;100.00
63115;BME280;49208;50.874;6.466;2023-02-11T12:48:03;102422.75;;;6.09;100.00
63115;BME280;49208;50.874;6.466;2023-02-11T12:55:55;102417.44;;;6.09;100.00
63115;BME280;49208;50.874;6.466;2023-02-11T12:58:25;102411.22;;;6.05;100.00
63115;BME280;49208;50.874;6.466;2023-02-11T13:00:56;102405.09;;;6.06;100.00
63115;BME280;49208;50.874;6.466;2023-02-11T13:03:28;102414.78;;;6.07;100.00
63115;BME280;49208;50.874;6.466;2023-02-11T13:06:03;102420.94;;;6.06;100.00
63115;BME280;49208;50.874;6.466;2023-02-11T13:08:32;102417.38;;;6.04;100.00
63115;BME280;49208;50.874;6.466;2023-02-11T13:11:12;102416.53;;;6.07;100.00
63115;BME280;49208;50.874;6.466;2023-02-11T13:16:40;102401.63;;;6.11;100.00
63115;BME280;49208;50.874;6.466;2023-02-11T13:24:36;102394.69;;;6.19;100.00
63115;BME280;49208;50.874;6.466;2023-02-11T13:27:21;102383.25;;;6.21;100.00
63115;BME280;49208;50.874;6.466;2023-02-11T13:37:51;102385.94;;;6.26;100.00
63115;BME280;49208;50.874;6.466;2023-02-11T13:40:26;102392.13;;;6.26;100.00
63115;BME280;49208;50.874;6.466;2023-02-11T13:42:56;102388.59;;;6.26;100.00
63115;BME280;49208;50.874;6.466;2023-02-11T13:45:46;102392.13;;;6.26;100.00
63115;BME280;49208;50.874;6.466;2023-02-11T13:50:55;102385.91;;;6.21;100.00
63115;BME280;49208;50.874;6.466;2023-02-11T13:53:23;102390.31;;;6.21;100.00
63115;BME280;49208;50.874;6.466;2023-02-11T13:56:03;102403.53;;;6.22;100.00
63115;BME280;49208;50.874;6.466;2023-02-11T14:00:54;102395.59;;;6.22;100.00
63115;BME280;49208;50.874;6.466;2023-02-11T14:03:37;102397.38;;;6.23;100.00
63115;BME280;49208;50.874;6.466;2023-02-11T14:06:24;102399.19;;;6.26;100.00
63115;BME280;49208;50.874;6.466;2023-02-11T14:17:17;102395.72;;;6.32;100.00
63115;BME280;49208;50.874;6.466;2023-02-11T14:19:45;102394.88;;;6.34;100.00
63115;BME280;49208;50.874;6.466;2023-02-11T14:22:25;102392.28;;;6.37;100.00
63115;BME280;49208;50.874;6.466;2023-02-11T14:24:59;102397.59;;;6.40;100.00
63115;BME280;49208;50.874;6.466;2023-02-11T14:27:41;102399.41;;;6.41;100.00
63115;BME280;49208;50.874;6.466;2023-02-11T14:30:13;102387.94;;;6.42;100.00
63115;BME280;49208;50.874;6.466;2023-02-11T14:35:33;102391.47;;;6.44;100.00
63115;BME280;49208;50.874;6.466;2023-02-11T14:40:38;102393.34;;;6.50;100.00
63115;BME280;49208;50.874;6.466;2023-02-11T14:43:12;102396.00;;;6.52;100.00
63115;BME280;49208;50.874;6.466;2023-02-11T14:45:41;102398.69;;;6.55;100.00
63115;BME280;49208;50.874;6.466;2023-02-11T14:48:14;102397.81;;;6.57;100.00
63115;BME280;49208;50.874;6.466;2023-02-11T14:50:45;102393.44;;;6.59;100.00
63115;BME280;49208;50.874;6.466;2023-02-11T14:53:18;102395.16;;;6.57;100.00
63115;BME280;49208;50.874;6.466;2023-02-11T14:55:50;102401.38;;;6.59;100.00
63115;BME280;49208;50.874;6.466;2023-02-11T15:01:00;102403.09;;;6.57;100.00
63115;BME280;49208;50.874;6.466;2023-02-11T15:03:40;102396.97;;;6.58;100.00
63115;BME280;49208;50.874;6.466;2023-02-11T15:08:36;102405.75;;;6.57;100.00
63115;BME280;49208;50.874;6.466;2023-02-11T15:11:09;102406.63;;;6.58;100.00
63115;BME280;49208;50.874;6.466;2023-02-11T15:13:36;102411.94;;;6.56;100.00
63115;BME280;49208;50.874;6.466;2023-02-11T15:16:07;102405.75;;;6.56;100.00
63115;BME280;49208;50.874;6.466;2023-02-11T15:18:40;102403.13;;;6.56;100.00
63115;BME280;49208;50.874;6.466;2023-02-11T15:21:06;102412.78;;;6.55;100.00
63115;BME280;49208;50.874;6.466;2023-02-11T15:23:32;102415.44;;;6.54;100.00
63115;BME280;49208;50.874;6.466;2023-02-11T15:25:58;102417.16;;;6.53;100.00
63115;BME280;49208;50.874;6.466;2023-02-11T15:28:31;102419.81;;;6.53;100.00
63115;BME280;49208;50.874;6.466;2023-02-11T15:31:10;102410.13;;;6.54;100.00
63115;BME280;49208;50.874;6.466;2023-02-11T15:33:37;102411.88;;;6.52;100.00
63115;BME280;49208;50.874;6.466;2023-02-11T15:36:03;102410.09;;;6.51;100.00
63115;BME280;49208;50.874;6.466;2023-02-11T15:38:29;102418.94;;;6.53;100.00
63115;BME280;49208;50.874;6.466;2023-02-11T15:41:02;102413.63;;;6.50;100.00
63115;BME280;49208;50.874;6.466;2023-02-11T15:43:48;102418.88;;;6.48;100.00
63115;BME280;49208;50.874;6.466;2023-02-11T15:46:19;102418.84;;;6.46;100.00
63115;BME280;49208;50.874;6.466;2023-02-11T15:48:48;102412.69;;;6.46;100.00
63115;BME280;49208;50.874;6.466;2023-02-11T15:51:36;102422.38;;;6.47;100.00
63115;BME280;49208;50.874;6.466;2023-02-11T15:54:06;102416.19;;;6.46;100.00
63115;BME280;49208;50.874;6.466;2023-02-11T15:56:41;102418.78;;;6.42;100.00
63115;BME280;49208;50.874;6.466;2023-02-11T15:59:25;102421.41;;;6.40;100.00
63115;BME280;49208;50.874;6.466;2023-02-11T16:01:52;102418.75;;;6.37;100.00
63115;BME280;49208;50.874;6.466;2023-02-11T16:04:19;102414.28;;;6.35;100.00
63115;BME280;49208;50.874;6.466;2023-02-11T16:06:46;102412.47;;;6.32;100.00
63115;BME280;49208;50.874;6.466;2023-02-11T16:16:54;102416.75;;;6.22;100.00
63115;BME280;49208;50.874;6.466;2023-02-11T16:19:22;102429.06;;;6.19;100.00
63115;BME280;49208;50.874;6.466;2023-02-11T16:21:48;102430.78;;;6.17;100.00
63115;BME280;49208;50.874;6.466;2023-02-11T16:24:20;102431.63;;;6.13;100.00
63115;BME280;49208;50.874;6.466;2023-02-11T16:26:52;102436.84;;;6.10;100.00
63115;BME280;49208;50.874;6.466;2023-02-11T16:29:23;102441.25;;;6.09;100.00
63115;BME280;49208;50.874;6.466;2023-02-11T16:31:51;102442.09;;;6.06;100.00
63115;BME280;49208;50.874;6.466;2023-02-11T16:34:20;102435.00;;;6.04;100.00
63115;BME280;49208;50.874;6.466;2023-02-11T16:36:47;102436.75;;;6.02;100.00
63115;BME280;49208;50.874;6.466;2023-02-11T16:39:13;102435.84;;;6.00;100.00
63115;BME280;49208;50.874;6.466;2023-02-11T16:41:39;102434.91;;;5.98;100.00
63115;BME280;49208;50.874;6.466;2023-02-11T16:44:05;102434.00;;;5.97;100.00
63115;BME280;49208;50.874;6.466;2023-02-11T16:46:30;102448.94;;;5.95;100.00
63115;BME280;49208;50.874;6.466;2023-02-11T16:48:57;102443.63;;;5.94;100.00
63115;BME280;49208;50.874;6.466;2023-02-11T16:51:30;102449.75;;;5.93;100.00
63115;BME280;49208;50.874;6.466;2023-02-11T16:53:55;102452.41;;;5.93;100.00
63115;BME280;49208;50.874;6.466;2023-02-11T16:56:20;102450.66;;;5.92;100.00
63115;BME280;49208;50.874;6.466;2023-02-11T16:58:46;102460.31;;;5.90;100.00
63115;BME280;49208;50.874;6.466;2023-02-11T17:01:11;102463.78;;;5.88;100.00
63115;BME280;49208;50.874;6.466;2023-02-11T17:03:38;102468.19;;;5.88;100.00
63115;BME280;49208;50.874;6.466;2023-02-11T17:06:11;102470.81;;;5.86;100.00
63115;BME280;49208;50.874;6.466;2023-02-11T17:08:38;102470.78;;;5.85;100.00
63115;BME280;49208;50.874;6.466;2023-02-11T17:11:04;102469.91;;;5.84;100.00
63115;BME280;49208;50.874;6.466;2023-02-11T17:13:29;102468.97;;;5.82;100.00
63115;BME280;49208;50.874;6.466;2023-02-11T17:15:55;102474.22;;;5.81;100.00
63115;BME280;49208;50.874;6.466;2023-02-11T17:18:20;102478.63;;;5.80;100.00
63115;BME280;49208;50.874;6.466;2023-02-11T17:20:45;102485.66;;;5.78;100.00
63115;BME280;49208;50.874;6.466;2023-02-11T17:23:11;102482.97;;;5.77;100.00
63115;BME280;49208;50.874;6.466;2023-02-11T17:25:37;102485.59;;;5.75;100.00
63115;BME280;49208;50.874;6.466;2023-02-11T17:28:06;102490.00;;;5.76;100.00
63115;BME280;49208;50.874;6.466;2023-02-11T17:30:32;102496.19;;;5.77;100.00
63115;BME280;49208;50.874;6.466;2023-02-11T17:32:58;102503.25;;;5.78;100.00
63115;BME280;49208;50.874;6.466;2023-02-11T17:35:23;102499.69;;;5.76;100.00
63115;BME280;49208;50.874;6.466;2023-02-11T17:37:49;102500.59;;;5.76;100.00
63115;BME280;49208;50.874;6.466;2023-02-11T17:40:14;102508.50;;;5.76;100.00
63115;BME280;49208;50.874;6.466;2023-02-11T17:42:40;102508.47;;;5.75;100.00
63115;BME280;49208;50.874;6.466;2023-02-11T17:45:06;102503.19;;;5.75;100.00
63115;BME280;49208;50.874;6.466;2023-02-11T17:47:32;102509.38;;;5.75;100.00
63115;BME280;49208;50.874;6.466;2023-02-11T17:49:58;102508.47;;;5.75;100.00
63115;BME280;49208;50.874;6.466;2023-02-11T17:52:23;102517.28;;;5.74;100.00
63115;BME280;49208;50.874;6.466;2023-02-11T17:54:51;102514.63;;;5.74;100.00
63115;BME280;49208;50.874;6.466;2023-02-11T17:57:16;102513.75;;;5.73;100.00
63115;BME280;49208;50.874;6.466;2023-02-11T17:59:41;102512.84;;;5.73;100.00
63115;BME280;49208;50.874;6.466;2023-02-11T18:02:10;102516.41;;;5.73;100.00
63115;BME280;49208;50.874;6.466;2023-02-11T18:04:35;102514.63;;;5.74;100.00
63115;BME280;49208;50.874;6.466;2023-02-11T18:07:01;102518.16;;;5.74;100.00
63115;BME280;49208;50.874;6.466;2023-02-11T18:09:26;102525.16;;;5.72;100.00
63115;BME280;49208;50.874;6.466;2023-02-11T18:11:52;102526.06;;;5.71;100.00
63115;BME280;49208;50.874;6.466;2023-02-11T18:14:19;102532.22;;;5.72;100.00
63115;BME280;49208;50.874;6.466;2023-02-11T18:16:44;102532.19;;;5.70;100.00
63115;BME280;49208;50.874;6.466;2023-02-11T18:19:11;102532.19;;;5.69;100.00
63115;BME280;49208;50.874;6.466;2023-02-11T18:21:37;102537.47;;;5.69;100.00
63115;BME280;49208;50.874;6.466;2023-02-11T18:24:03;102538.34;;;5.69;100.00
63115;BME280;49208;50.874;6.466;2023-02-11T18:26:29;102534.78;;;5.67;100.00
63115;BME280;49208;50.874;6.466;2023-02-11T18:28:56;102548.00;;;5.67;100.00
63115;BME280;49208;50.874;6.466;2023-02-11T18:31:23;102556.81;;;5.67;100.00
63115;BME280;49208;50.874;6.466;2023-02-11T18:33:49;102545.31;;;5.65;100.00
63115;BME280;49208;50.874;6.466;2023-02-11T18:36:19;102551.47;;;5.64;100.00
63115;BME280;49208;50.874;6.466;2023-02-11T18:38:44;102547.91;;;5.64;100.00
63115;BME280;49208;50.874;6.466;2023-02-11T18:41:11;102549.69;;;5.63;100.00
63115;BME280;49208;50.874;6.466;2023-02-11T18:43:36;102552.28;;;5.62;100.00
63115;BME280;49208;50.874;6.466;2023-02-11T18:46:06;102554.94;;;5.60;100.00
63115;BME280;49208;50.874;6.466;2023-02-11T18:48:32;102554.00;;;5.58;100.00
63115;BME280;49208;50.874;6.466;2023-02-11T18:50:57;102551.38;;;5.58;100.00
63115;BME280;49208;50.874;6.466;2023-02-11T18:53:23;102554.00;;;5.58;100.00
63115;BME280;49208;50.874;6.466;2023-02-11T18:55:50;102550.44;;;5.56;100.00
63115;BME280;49208;50.874;6.466;2023-02-11T18:58:16;102540.72;;;5.55;100.00
63115;BME280;49208;50.874;6.466;2023-02-11T19:00:44;102538.06;;;5.55;100.00
63115;BME280;49208;50.874;6.466;2023-02-11T19:03:09;102539.84;;;5.55;100.00
63115;BME280;49208;50.874;6.466;2023-02-11T19:05:42;102535.44;;;5.55;100.00
63115;BME280;49208;50.874;6.466;2023-02-11T19:08:09;102540.72;;;5.55;100.00
63115;BME280;49208;50.874;6.466;2023-02-11T19:10:38;102538.97;;;5.54;100.00
63115;BME280;49208;50.874;6.466;2023-02-11T19:13:04;102542.44;;;5.53;100.00
63115;BME280;49208;50.874;6.466;2023-02-11T19:15:29;102545.03;;;5.52;100.00
63115;BME280;49208;50.874;6.466;2023-02-11T19:17:54;102546.81;;;5.51;100.00
63115;BME280;49208;50.874;6.466;2023-02-11T19:20:20;102550.28;;;5.49;100.00
63115;BME280;49208;50.874;6.466;2023-02-11T19:22:45;102548.50;;;5.47;100.00
63115;BME280;49208;50.874;6.466;2023-02-11T19:25:11;102548.47;;;5.46;100.00
63115;BME280;49208;50.874;6.466;2023-02-11T19:27:37;102552.00;;;5.46;100.00
63115;BME280;49208;50.874;6.466;2023-02-11T19:30:06;102551.97;;;5.45;100.00
63115;BME280;49208;50.874;6.466;2023-02-11T19:32:32;102559.91;;;5.45;100.00
63115;BME280;49208;50.874;6.466;2023-02-11T19:34:57;102563.41;;;5.45;100.00
63115;BME280;49208;50.874;6.466;2023-02-11T19:37:23;102555.53;;;5.47;100.00
63115;BME280;49208;50.874;6.466;2023-02-11T19:39:48;102561.69;;;5.46;100.00
63115;BME280;49208;50.874;6.466;2023-02-11T19:42:14;102570.50;;;5.46;100.00
63115;BME280;49208;50.874;6.466;2023-02-11T19:44:39;102559.06;;;5.46;100.00
63115;BME280;49208;50.874;6.466;2023-02-11T19:47:04;102559.00;;;5.44;100.00
63115;BME280;49208;50.874;6.466;2023-02-11T19:49:31;102566.91;;;5.43;100.00
63115;BME280;49208;50.874;6.466;2023-02-11T19:51:56;102569.50;;;5.40;100.00
63115;BME280;49208;50.874;6.466;2023-02-11T19:54:22;102571.22;;;5.38;100.00
63115;BME280;49208;50.874;6.466;2023-02-11T19:56:50;102572.94;;;5.36;100.00
63115;BME280;49208;50.874;6.466;2023-02-11T19:59:16;102571.13;;;5.35;100.00
63115;BME280;49208;50.874;6.466;2023-02-11T20:01:41;102572.00;;;5.34;100.00
63115;BME280;49208;50.874;6.466;2023-02-11T20:04:07;102576.38;;;5.32;100.00
63115;BME280;49208;50.874;6.466;2023-02-11T20:06:33;102571.00;;;5.29;100.00
63115;BME280;49208;50.874;6.466;2023-02-11T20:09:02;102579.81;;;5.28;100.00
63115;BME280;49208;50.874;6.466;2023-02-11T20:11:29;102570.97;;;5.25;100.00
63115;BME280;49208;50.874;6.466;2023-02-11T20:13:56;102564.75;;;5.23;100.00
63115;BME280;49208;50.874;6.466;2023-02-11T20:16:23;102565.59;;;5.22;100.00
63115;BME280;49208;50.874;6.466;2023-02-11T20:18:49;102571.72;;;5.20;100.00
63115;BME280;49208;50.874;6.466;2023-02-11T20:21:20;102572.50;;;5.16;100.00
63115;BME280;49208;50.874;6.466;2023-02-11T20:23:46;102578.66;;;5.15;100.00
63115;BME280;49208;50.874;6.466;2023-02-11T20:26:17;102583.94;;;5.16;100.00
63115;BME280;49208;50.874;6.466;2023-02-11T20:28:43;102576.91;;;5.15;100.00
63115;BME280;49208;50.874;6.466;2023-02-11T20:31:09;102581.31;;;5.15;100.00
63115;BME280;49208;50.874;6.466;2023-02-11T20:33:36;102583.00;;;5.13;100.00
63115;BME280;49208;50.874;6.466;2023-02-11T20:36:16;102583.00;;;5.13;100.00
63115;BME280;49208;50.874;6.466;2023-02-11T20:38:42;102589.09;;;5.10;100.00
63115;BME280;49208;50.874;6.466;2023-02-11T20:41:10;102591.72;;;5.09;100.00
63115;BME280;49208;50.874;6.466;2023-02-11T20:43:39;102596.97;;;5.07;100.00
63115;BME280;49208;50.874;6.466;2023-02-11T20:46:05;102590.72;;;5.03;100.00
63115;BME280;49208;50.874;6.466;2023-02-11T20:48:31;102595.03;;;5.00;100.00
63115;BME280;49208;50.874;6.466;2023-02-11T20:51:04;102594.97;;;4.97;100.00
63115;BME280;49208;50.874;6.466;2023-02-11T20:53:31;102598.44;;;4.94;100.00
63115;BME280;49208;50.874;6.466;2023-02-11T20:56:06;102598.41;;;4.93;100.00
63115;BME280;49208;50.874;6.466;2023-02-11T20:58:33;102609.81;;;4.92;100.00
63115;BME280;49208;50.874;6.466;2023-02-11T21:01:20;102603.63;;;4.91;100.00
63115;BME280;49208;50.874;6.466;2023-02-11T21:03:56;102612.44;;;4.92;100.00
63115;BME280;49208;50.874;6.466;2023-02-11T21:06:26;102613.34;;;4.92;100.00
63115;BME280;49208;50.874;6.466;2023-02-11T21:08:55;102612.44;;;4.92;100.00
63115;BME280;49208;50.874;6.466;2023-02-11T21:11:22;102617.75;;;4.93;100.00
63115;BME280;49208;50.874;6.466;2023-02-11T21:13:47;102610.72;;;4.92;100.00
63115;BME280;49208;50.874;6.466;2023-02-11T21:16:15;102621.28;;;4.92;100.00
63115;BME280;49208;50.874;6.466;2023-02-11T21:18:41;102613.34;;;4.92;100.00
63115;BME280;49208;50.874;6.466;2023-02-11T21:21:07;102615.06;;;4.92;100.00
63115;BME280;49208;50.874;6.466;2023-02-11T21:23:32;102616.88;;;4.93;100.00
63115;BME280;49208;50.874;6.466;2023-02-11T21:25:57;102621.22;;;4.91;100.00
63115;BME280;49208;50.874;6.466;2023-02-11T21:28:23;102615.94;;;4.91;100.00
63115;BME280;49208;50.874;6.466;2023-02-11T21:30:56;102619.47;;;4.91;100.00
63115;BME280;49208;50.874;6.466;2023-02-11T21:33:24;102620.34;;;4.92;100.00
63115;BME280;49208;50.874;6.466;2023-02-11T21:35:56;102625.63;;;4.92;100.00
63115;BME280;49208;50.874;6.466;2023-02-11T21:38:23;102632.72;;;4.93;100.00
63115;BME280;49208;50.874;6.466;2023-02-11T21:40:48;102627.44;;;4.93;100.00
63115;BME280;49208;50.874;6.466;2023-02-11T21:43:14;102629.25;;;4.95;100.00
63115;BME280;49208;50.874;6.466;2023-02-11T21:45:48;102616.94;;;4.96;100.00
63115;BME280;49208;50.874;6.466;2023-02-11T21:48:15;102618.72;;;4.97;100.00
63115;BME280;49208;50.874;6.466;2023-02-11T21:50:43;102619.56;;;4.96;100.00
63115;BME280;49208;50.874;6.466;2023-02-11T21:53:09;102624.00;;;4.97;100.00
63115;BME280;49208;50.874;6.466;2023-02-11T21:55:35;102635.44;;;4.97;100.00